sensor_id;sensor_type;location;lat;lon;timestamp;P1;durP1;ratioP1;P2;durP2;ratioP2
20104;SDS011;10212;42.714;23.310;2024-03-23T00:53:53;24.08;;;12.23;;
20104;SDS011;10212;42.714;23.310;2024-03-23T01:03:53;21.27;;;10.20;;
20104;SDS011;10212;42.714;23.310;2024-03-23T01:13:54;20.25;;;10.55;;
20104;SDS011;10212;42.714;23.310;2024-03-23T01:23:56;19.00;;;10.40;;
20104;SDS011;10212;42.714;23.310;2024-03-23T01:33:56;22.35;;;10.57;;
20104;SDS011;10212;42.714;23.310;2024-03-23T01:43:56;22.27;;;11.05;;
20104;SDS011;10212;42.714;23.310;2024-03-23T01:53:57;20.30;;;10.02;;
20104;SDS011;10212;42.714;23.310;2024-03-23T02:04:00;21.65;;;10.32;;
20104;SDS011;10212;42.714;23.310;2024-03-23T02:14:01;18.88;;;9.93;;
20104;SDS011;10212;42.714;23.310;2024-03-23T02:24:02;18.95;;;9.10;;
20104;SDS011;10212;42.714;23.310;2024-03-23T02:34:02;17.33;;;8.65;;
20104;SDS011;10212;42.714;23.310;2024-03-23T02:44:02;15.80;;;7.68;;
20104;SDS011;10212;42.714;23.310;2024-03-23T02:54:03;17.13;;;8.63;;
20104;SDS011;10212;42.714;23.310;2024-03-23T03:04:03;15.25;;;8.43;;
20104;SDS011;10212;42.714;23.310;2024-03-23T03:14:05;13.88;;;7.30;;
20104;SDS011;10212;42.714;23.310;2024-03-23T03:24:07;14.35;;;7.40;;
20104;SDS011;10212;42.714;23.310;2024-03-23T03:34:07;13.45;;;7.20;;
20104;SDS011;10212;42.714;23.310;2024-03-23T03:44:08;16.65;;;8.23;;
20104;SDS011;10212;42.714;23.310;2024-03-23T03:54:08;13.38;;;7.15;;
20104;SDS011;10212;42.714;23.310;2024-03-23T04:04:09;14.40;;;7.63;;
20104;SDS011;10212;42.714;23.310;2024-03-23T04:14:09;13.95;;;7.57;;
20104;SDS011;10212;42.714;23.310;2024-03-23T04:24:09;16.58;;;7.57;;
20104;SDS011;10212;42.714;23.310;2024-03-23T04:34:10;18.30;;;9.50;;
20104;SDS011;10212;42.714;23.310;2024-03-23T04:44:10;19.38;;;8.70;;
20104;SDS011;10212;42.714;23.310;2024-03-23T04:54:14;18.27;;;8.60;;
20104;SDS011;10212;42.714;23.310;2024-03-23T05:04:14;17.65;;;8.88;;
20104;SDS011;10212;42.714;23.310;2024-03-23T05:14:15;17.35;;;8.20;;
20104;SDS011;10212;42.714;23.310;2024-03-23T05:24:15;24.13;;;11.23;;
20104;SDS011;10212;42.714;23.310;2024-03-23T05:34:16;16.08;;;7.15;;
20104;SDS011;10212;42.714;23.310;2024-03-23T05:44:17;14.73;;;8.15;;
20104;SDS011;10212;42.714;23.310;2024-03-23T05:54:17;14.07;;;8.02;;
20104;SDS011;10212;42.714;23.310;2024-03-23T06:04:17;18.40;;;8.95;;
20104;SDS011;10212;42.714;23.310;2024-03-23T06:14:18;19.58;;;8.52;;
20104;SDS011;10212;42.714;23.310;2024-03-23T06:24:18;19.27;;;9.60;;
20104;SDS011;10212;42.714;23.310;2024-03-23T06:34:19;18.20;;;9.27;;
20104;SDS011;10212;42.714;23.310;2024-03-23T06:44:20;17.73;;;10.05;;
20104;SDS011;10212;42.714;23.310;2024-03-23T06:54:21;18.65;;;10.52;;
20104;SDS011;10212;42.714;23.310;2024-03-23T07:04:21;21.88;;;10.55;;
20104;SDS011;10212;42.714;23.310;2024-03-23T07:14:22;17.63;;;9.40;;
20104;SDS011;10212;42.714;23.310;2024-03-23T07:24:23;18.55;;;9.90;;
20104;SDS011;10212;42.714;23.310;2024-03-23T07:34:23;23.77;;;10.70;;
20104;SDS011;10212;42.714;23.310;2024-03-23T07:44:24;18.08;;;9.48;;
20104;SDS011;10212;42.714;23.310;2024-03-23T07:54:24;20.00;;;10.35;;
20104;SDS011;10212;42.714;23.310;2024-03-23T08:04:25;18.48;;;8.90;;
20104;SDS011;10212;42.714;23.310;2024-03-23T08:14:25;15.98;;;8.60;;
20104;SDS011;10212;42.714;23.310;2024-03-23T08:24:26;22.02;;;9.50;;
20104;SDS011;10212;42.714;23.310;2024-03-23T08:34:26;17.45;;;10.13;;
20104;SDS011;10212;42.714;23.310;2024-03-23T08:44:26;22.00;;;10.18;;
20104;SDS011;10212;42.714;23.310;2024-03-23T08:54:27;20.15;;;10.77;;
20104;SDS011;10212;42.714;23.310;2024-03-23T09:04:29;21.88;;;10.35;;
20104;SDS011;10212;42.714;23.310;2024-03-23T09:14:29;21.77;;;10.88;;
20104;SDS011;10212;42.714;23.310;2024-03-23T09:24:30;17.35;;;10.23;;
20104;SDS011;10212;42.714;23.310;2024-03-23T09:34:32;19.58;;;10.98;;
20104;SDS011;10212;42.714;23.310;2024-03-23T09:44:32;27.33;;;10.55;;
20104;SDS011;10212;42.714;23.310;2024-03-23T09:54:33;19.27;;;9.67;;
20104;SDS011;10212;42.714;23.310;2024-03-23T10:04:40;19.17;;;9.80;;
20104;SDS011;10212;42.714;23.310;2024-03-23T10:14:41;17.88;;;9.00;;
20104;SDS011;10212;42.714;23.310;2024-03-23T10:24:42;16.60;;;9.07;;
20104;SDS011;10212;42.714;23.310;2024-03-23T10:34:43;14.68;;;8.10;;
20104;SDS011;10212;42.714;23.310;2024-03-23T10:44:44;15.15;;;8.05;;
20104;SDS011;10212;42.714;23.310;2024-03-23T10:54:44;12.27;;;7.00;;
20104;SDS011;10212;42.714;23.310;2024-03-23T11:04:48;15.95;;;7.03;;
20104;SDS011;10212;42.714;23.310;2024-03-23T11:14:48;12.88;;;6.88;;
20104;SDS011;10212;42.714;23.310;2024-03-23T11:24:50;16.55;;;6.25;;
20104;SDS011;10212;42.714;23.310;2024-03-23T11:34:50;13.48;;;5.88;;
20104;SDS011;10212;42.714;23.310;2024-03-23T11:44:51;13.80;;;5.45;;
20104;SDS011;10212;42.714;23.310;2024-03-23T11:54:51;10.25;;;4.82;;
20104;SDS011;10212;42.714;23.310;2024-03-23T12:04:51;9.13;;;5.30;;
20104;SDS011;10212;42.714;23.310;2024-03-23T12:15:02;12.10;;;5.40;;
20104;SDS011;10212;42.714;23.310;2024-03-23T12:25:06;9.55;;;5.10;;
20104;SDS011;10212;42.714;23.310;2024-03-23T12:35:06;13.07;;;4.97;;
20104;SDS011;10212;42.714;23.310;2024-03-23T12:45:09;5.95;;;3.95;;
20104;SDS011;10212;42.714;23.310;2024-03-23T12:55:09;6.70;;;2.78;;
20104;SDS011;10212;42.714;23.310;2024-03-23T13:05:10;2.25;;;1.63;;
20104;SDS011;10212;42.714;23.310;2024-03-23T13:15:11;6.60;;;1.90;;
20104;SDS011;10212;42.714;23.310;2024-03-23T13:25:11;2.58;;;1.60;;
20104;SDS011;10212;42.714;23.310;2024-03-23T13:35:12;6.78;;;2.30;;
20104;SDS011;10212;42.714;23.310;2024-03-23T13:45:13;1.70;;;1.40;;
20104;SDS011;10212;42.714;23.310;2024-03-23T13:55:13;3.40;;;1.55;;
20104;SDS011;10212;42.714;23.310;2024-03-23T14:05:15;4.57;;;1.75;;
20104;SDS011;10212;42.714;23.310;2024-03-23T14:15:15;6.30;;;2.53;;
20104;SDS011;10212;42.714;23.310;2024-03-23T14:25:16;13.43;;;2.50;;
20104;SDS011;10212;42.714;23.310;2024-03-23T14:35:17;7.90;;;2.25;;
20104;SDS011;10212;42.714;23.310;2024-03-23T14:45:17;3.78;;;2.00;;
20104;SDS011;10212;42.714;23.310;2024-03-23T14:55:17;6.80;;;2.60;;
20104;SDS011;10212;42.714;23.310;2024-03-23T15:05:18;3.85;;;2.40;;
20104;SDS011;10212;42.714;23.310;2024-03-23T15:15:18;6.40;;;2.55;;
20104;SDS011;10212;42.714;23.310;2024-03-23T15:25:19;4.75;;;2.72;;
20104;SDS011;10212;42.714;23.310;2024-03-23T15:35:19;3.75;;;2.60;;
20104;SDS011;10212;42.714;23.310;2024-03-23T15:45:22;8.10;;;3.38;;
20104;SDS011;10212;42.714;23.310;2024-03-23T15:55:23;5.55;;;3.08;;
20104;SDS011;10212;42.714;23.310;2024-03-23T16:05:23;5.60;;;3.00;;
20104;SDS011;10212;42.714;23.310;2024-03-23T16:15:24;6.97;;;2.90;;
20104;SDS011;10212;42.714;23.310;2024-03-23T16:25:24;4.30;;;3.15;;
20104;SDS011;10212;42.714;23.310;2024-03-23T16:35:24;6.75;;;2.90;;
20104;SDS011;10212;42.714;23.310;2024-03-23T16:45:25;7.07;;;3.40;;
20104;SDS011;10212;42.714;23.310;2024-03-23T16:55:25;7.47;;;2.88;;
20104;SDS011;10212;42.714;23.310;2024-03-23T17:05:25;6.55;;;3.28;;
20104;SDS011;10212;42.714;23.310;2024-03-23T17:15:26;7.13;;;4.35;;
20104;SDS011;10212;42.714;23.310;2024-03-23T17:25:26;7.53;;;3.35;;
20104;SDS011;10212;42.714;23.310;2024-03-23T17:35:27;10.18;;;3.65;;
20104;SDS011;10212;42.714;23.310;2024-03-23T17:45:27;9.52;;;3.40;;
20104;SDS011;10212;42.714;23.310;2024-03-23T17:55:27;6.55;;;3.75;;
20104;SDS011;10212;42.714;23.310;2024-03-23T18:05:28;11.73;;;4.45;;
20104;SDS011;10212;42.714;23.310;2024-03-23T18:15:28;8.00;;;4.22;;
20104;SDS011;10212;42.714;23.310;2024-03-23T18:25:29;13.18;;;6.25;;
20104;SDS011;10212;42.714;23.310;2024-03-23T18:35:29;16.98;;;7.63;;
20104;SDS011;10212;42.714;23.310;2024-03-23T18:45:30;17.35;;;7.75;;
20104;SDS011;10212;42.714;23.310;2024-03-23T18:55:31;9.75;;;5.57;;
20104;SDS011;10212;42.714;23.310;2024-03-23T19:05:31;11.10;;;5.40;;
20104;SDS011;10212;42.714;23.310;2024-03-23T19:15:32;13.30;;;5.88;;
20104;SDS011;10212;42.714;23.310;2024-03-23T19:25:33;11.75;;;6.28;;
20104;SDS011;10212;42.714;23.310;2024-03-23T19:35:33;11.65;;;5.97;;
20104;SDS011;10212;42.714;23.310;2024-03-23T19:45:34;10.82;;;5.50;;
20104;SDS011;10212;42.714;23.310;2024-03-23T19:55:35;11.23;;;5.70;;
20104;SDS011;10212;42.714;23.310;2024-03-23T20:05:37;11.20;;;6.20;;
20104;SDS011;10212;42.714;23.310;2024-03-23T20:15:37;13.82;;;5.78;;
20104;SDS011;10212;42.714;23.310;2024-03-23T20:25:38;9.73;;;5.70;;
20104;SDS011;10212;42.714;23.310;2024-03-23T20:35:48;18.15;;;6.13;;
20104;SDS011;10212;42.714;23.310;2024-03-23T20:45:56;16.45;;;6.05;;
20104;SDS011;10212;42.714;23.310;2024-03-23T20:55:58;8.48;;;5.20;;
20104;SDS011;10212;42.714;23.310;2024-03-23T21:05:59;13.95;;;5.80;;
20104;SDS011;10212;42.714;23.310;2024-03-23T21:15:59;11.45;;;4.97;;
20104;SDS011;10212;42.714;23.310;2024-03-23T21:26:04;11.00;;;5.43;;
20104;SDS011;10212;42.714;23.310;2024-03-23T21:36:05;9.93;;;5.10;;
20104;SDS011;10212;42.714;23.310;2024-03-23T21:46:06;11.32;;;5.30;;
20104;SDS011;10212;42.714;23.310;2024-03-23T21:56:08;8.55;;;4.93;;
20104;SDS011;10212;42.714;23.310;2024-03-23T22:06:08;11.02;;;5.07;;
20104;SDS011;10212;42.714;23.310;2024-03-23T22:16:09;11.20;;;5.70;;
20104;SDS011;10212;42.714;23.310;2024-03-23T22:26:09;11.98;;;5.40;;
20104;SDS011;10212;42.714;23.310;2024-03-23T22:36:10;10.88;;;5.30;;
20104;SDS011;10212;42.714;23.310;2024-03-23T22:46:10;8.07;;;5.07;;
20104;SDS011;10212;42.714;23.310;2024-03-23T22:56:11;12.07;;;5.43;;
20104;SDS011;10212;42.714;23.310;2024-03-23T23:06:11;11.23;;;5.32;;
20104;SDS011;10212;42.714;23.310;2024-03-23T23:16:11;11.18;;;5.80;;
20104;SDS011;10212;42.714;23.310;2024-03-23T23:26:12;12.95;;;5.68;;
20104;SDS011;10212;42.714;23.310;2024-03-23T23:36:12;13.55;;;5.30;;
20104;SDS011;10212;42.714;23.310;2024-03-23T23:46:13;11.53;;;4.93;;
20104;SDS011;10212;42.714;23.310;2024-03-23T23:56:14;10.20;;;5.50;;
